Warren, Pennsylvania
Current Conditions -  °F | °C
As of 2:55 AM on Wednesday 22 Oct 2014 (Local Time) from KJHW Reporting Station
Overcast Overcast  
Wind Chill: 36°   Ceiling: 200
Heat Index: 41°   Visibility: 5mi
Dew Point: 39°   Wind: 8mph
Humidity: 93%   Direction: 360°N
Pressure: 30.07"   Gusts: NA
Location:  41.84°N, 79.14°W
Report Text: KJHW 220655Z AUTO 36007KT 5SM OVC002 05/04 A3007 RMK AO1
Loading
Personal Weather Stations






























Interactive Weather Map New forecast layout! Learn more

10-Day Weather Forecast

Advertisements
Track Severe Weather on mobile